Time;durP1;ratioP1;P1;durP2;ratioP2;P2;SDS_P1;SDS_P2;PMS_P1;PMS_P2;Temp;Humidity;BMP_temperature;BMP_pressure;BME280_temperature;BME280_humidity;BME280_pressure;Samples;Min_cycle;Max_cycle;Signal;HPM_P1;HPM_P2
2022/05/29 00:02:03;;;;;;;10.32;2.65;;;9.60;99.90;;;;;;7399336;19;20078;-73
2022/05/29 00:04:33;;;;;;;12.73;3.13;;;9.60;99.90;;;;;;7400258;19;20019;-73
2022/05/29 00:07:02;;;;;;;12.57;3.05;;;9.70;99.90;;;;;;7396947;19;20011;-73
2022/05/29 00:09:34;;;;;;;13.85;2.50;;;9.30;99.90;;;;;;7401038;19;20379;-73
2022/05/29 00:12:04;;;;;;;9.98;3.53;;;9.50;99.90;;;;;;7396299;19;20042;-73
2022/05/29 00:14:35;;;;;;;13.23;2.95;;;9.60;99.90;;;;;;7399775;19;20037;-73
2022/05/29 00:17:07;;;;;;;9.32;2.83;;;9.20;99.90;;;;;;7399281;19;20035;-73
2022/05/29 00:19:36;;;;;;;11.48;3.22;;;;;;;;;;7396076;19;20021;-72
2022/05/29 00:22:06;;;;;;;13.23;3.00;;;9.50;99.90;;;;;;7396653;19;20038;-73
2022/05/29 00:24:35;;;;;;;12.52;3.15;;;9.30;99.90;;;;;;7396539;19;20381;-72
2022/05/29 00:27:03;;;;;;;10.93;3.10;;;9.30;99.90;;;;;;7397248;19;20010;-74
2022/05/29 00:29:35;;;;;;;15.35;3.15;;;9.00;99.90;;;;;;7398336;19;20038;-74
2022/05/29 00:32:08;;;;;;;13.13;3.10;;;9.50;99.90;;;;;;7395292;19;20017;-74
2022/05/29 00:34:41;;;;;;;13.85;3.33;;;9.30;99.90;;;;;;7397256;19;20022;-74
2022/05/29 00:37:13;;;;;;;17.58;3.50;;;9.30;99.90;;;;;;7398438;19;20038;-73
2022/05/29 00:39:42;;;;;;;11.95;2.83;;;9.40;99.90;;;;;;7397057;19;20527;-73
2022/05/29 00:42:15;;;;;;;13.73;3.03;;;8.90;99.90;;;;;;7395833;19;20025;-73
2022/05/29 00:44:46;;;;;;;10.55;3.45;;;;;;;;;;7396937;19;20026;-73
2022/05/29 00:47:20;;;;;;;9.73;3.08;;;9.00;99.90;;;;;;7398676;19;20010;-74
2022/05/29 00:49:50;;;;;;;9.57;2.70;;;9.50;99.90;;;;;;7398235;19;20018;-73
2022/05/29 00:52:22;;;;;;;11.93;4.05;;;9.00;99.90;;;;;;7397115;19;20034;-74
2022/05/29 00:54:55;;;;;;;14.95;3.92;;;9.30;99.90;;;;;;7396330;19;20732;-73
2022/05/29 00:57:29;;;;;;;12.98;3.67;;;9.00;99.90;;;;;;7396229;19;20450;-73
2022/05/29 01:00:02;;;;;;;12.18;3.08;;;9.30;99.90;;;;;;7397639;19;20022;-73
2022/05/29 01:02:34;;;;;;;11.65;2.85;;;9.00;99.90;;;;;;7398450;19;20089;-73
2022/05/29 01:05:06;;;;;;;11.20;3.17;;;8.90;99.90;;;;;;7397058;19;20014;-72
2022/05/29 01:07:38;;;;;;;13.70;3.30;;;9.10;99.90;;;;;;7396088;19;20014;-74
2022/05/29 01:10:09;;;;;;;9.00;2.53;;;9.10;99.90;;;;;;7398963;19;20337;-73
2022/05/29 01:12:45;;;;;;;11.43;3.67;;;9.10;99.90;;;;;;7391986;19;20395;-73
2022/05/29 01:15:25;;;;;;;11.32;2.80;;;9.10;99.90;;;;;;7395119;19;20038;-73
2022/05/29 01:18:06;;;;;;;9.52;2.90;;;9.10;99.90;;;;;;7396100;19;20422;-73
2022/05/29 01:20:58;;;;;;;5.80;2.65;;;9.10;99.90;;;;;;7397619;19;20070;-73
2022/05/29 01:23:58;;;;;;;14.00;3.15;;;9.20;99.90;;;;;;7394693;19;20364;-73
2022/05/29 01:26:57;;;;;;;12.45;2.90;;;9.10;99.90;;;;;;7392837;19;20021;-73
2022/05/29 01:29:35;;;;;;;12.20;2.75;;;9.10;99.90;;;;;;7394858;19;20029;-73
2022/05/29 01:32:09;;;;;;;9.70;2.85;;;8.70;99.90;;;;;;7395757;19;20586;-73
2022/05/29 01:34:42;;;;;;;14.93;3.28;;;9.10;99.90;;;;;;7395210;19;20025;-73
2022/05/29 01:37:17;;;;;;;11.98;2.83;;;9.10;99.90;;;;;;7397517;19;20039;-73
2022/05/29 01:39:59;;;;;;;9.93;2.90;;;9.20;99.90;;;;;;7394942;19;20086;-73
2022/05/29 01:42:34;;;;;;;8.70;2.63;;;9.50;99.90;;;;;;7391908;19;20014;-74
2022/05/29 01:45:13;;;;;;;13.45;3.20;;;9.20;99.90;;;;;;7395012;19;20019;-73
2022/05/29 01:47:45;;;;;;;7.78;2.70;;;9.10;99.90;;;;;;7396296;19;20041;-73
2022/05/29 01:50:20;;;;;;;11.63;2.88;;;9.10;99.90;;;;;;7397164;19;20381;-74
2022/05/29 01:52:53;;;;;;;11.20;2.92;;;9.20;99.90;;;;;;7394995;19;20007;-73
2022/05/29 01:55:27;;;;;;;10.57;2.60;;;8.90;99.90;;;;;;7394704;19;20383;-74
2022/05/29 01:58:02;;;;;;;13.82;2.88;;;9.00;99.90;;;;;;7395135;19;20078;-73
2022/05/29 02:00:34;;;;;;;10.10;3.33;;;9.20;99.90;;;;;;7394281;19;20024;-73
2022/05/29 02:03:07;;;;;;;13.30;3.08;;;9.20;99.90;;;;;;7395303;19;20010;-73
2022/05/29 02:05:42;;;;;;;14.27;3.05;;;9.10;99.90;;;;;;7395896;19;20031;-74
2022/05/29 02:08:20;;;;;;;19.05;3.47;;;9.10;99.90;;;;;;7395385;19;20529;-73
2022/05/29 02:10:54;;;;;;;14.77;3.22;;;9.10;99.90;;;;;;7396680;19;20038;-73
2022/05/29 02:13:26;;;;;;;9.57;3.10;;;8.10;99.90;;;;;;7395634;19;20010;-73
2022/05/29 02:16:02;;;;;;;10.65;2.95;;;9.30;99.90;;;;;;7396143;19;20061;-73
2022/05/29 02:18:37;;;;;;;7.90;2.90;;;9.10;99.90;;;;;;7393832;19;20018;-74
2022/05/29 02:21:13;;;;;;;12.73;3.33;;;9.10;99.90;;;;;;7394918;19;20037;-74
2022/05/29 02:23:45;;;;;;;11.68;3.35;;;9.20;99.90;;;;;;7393592;19;20014;-74
2022/05/29 02:26:19;;;;;;;10.77;3.35;;;9.20;99.90;;;;;;7397095;19;20015;-74
2022/05/29 02:28:53;;;;;;;7.30;3.10;;;9.20;99.90;;;;;;7390190;19;20015;-73
2022/05/29 02:31:34;;;;;;;9.75;2.72;;;9.40;99.90;;;;;;7393435;19;20047;-74
2022/05/29 02:34:11;;;;;;;10.90;3.30;;;9.10;99.90;;;;;;7396014;19;20019;-73
2022/05/29 02:36:44;;;;;;;14.32;3.60;;;9.00;99.90;;;;;;7391065;19;20022;-73
2022/05/29 02:39:40;;;;;;;12.85;3.35;;;9.10;99.90;;;;;;7392926;19;20390;-74
2022/05/29 02:42:20;;;;;;;18.00;4.03;;;8.70;99.90;;;;;;7393539;19;20495;-73
2022/05/29 02:44:59;;;;;;;13.32;4.88;;;9.40;99.90;;;;;;7394050;19;20025;-73
2022/05/29 02:47:41;;;;;;;12.30;3.25;;;9.40;99.90;;;;;;7394261;19;20095;-73
2022/05/29 02:50:25;;;;;;;9.90;2.85;;;9.10;99.90;;;;;;7393484;19;20025;-73
2022/05/29 02:52:54;;;;;;;13.13;3.70;;;9.00;99.90;;;;;;7392797;19;20015;-73
2022/05/29 02:55:24;;;;;;;15.25;3.50;;;8.70;99.90;;;;;;7393593;19;20022;-74
2022/05/29 02:57:59;;;;;;;9.88;3.40;;;9.00;99.90;;;;;;7393378;19;20093;-73
2022/05/29 03:00:32;;;;;;;11.40;3.40;;;8.90;99.90;;;;;;7390013;19;20018;-73
2022/05/29 03:03:16;;;;;;;8.50;2.85;;;9.00;99.90;;;;;;7393499;19;20027;-73
2022/05/29 03:05:55;;;;;;;11.20;3.05;;;9.10;99.90;;;;;;7393266;19;20023;-73
2022/05/29 03:08:39;;;;;;;9.75;3.05;;;8.80;99.90;;;;;;7395693;19;20043;-73
2022/05/29 03:11:13;;;;;;;8.88;2.75;;;8.80;99.90;;;;;;7392926;19;20027;-73
2022/05/29 03:13:53;;;;;;;10.73;2.80;;;8.80;99.90;;;;;;7391647;19;20049;-74
2022/05/29 03:16:34;;;;;;;14.13;3.20;;;8.50;99.90;;;;;;7394963;19;20030;-73
2022/05/29 03:19:18;;;;;;;10.38;3.00;;;8.80;99.90;;;;;;7386912;19;20038;-74
2022/05/29 03:21:53;;;;;;;14.52;3.30;;;8.80;99.90;;;;;;7395204;19;20022;-73
2022/05/29 03:24:28;;;;;;;12.63;3.40;;;8.90;99.90;;;;;;7392819;19;20013;-74
2022/05/29 03:27:06;;;;;;;12.02;3.20;;;8.70;99.90;;;;;;7394943;19;20034;-73
2022/05/29 03:29:39;;;;;;;7.63;2.85;;;8.90;99.90;;;;;;7391736;19;20025;-73
2022/05/29 03:32:10;;;;;;;12.63;3.42;;;9.00;99.90;;;;;;7394031;19;20010;-73
2022/05/29 03:34:41;;;;;;;9.82;3.03;;;8.80;99.90;;;;;;7392583;19;20505;-73
2022/05/29 03:37:10;;;;;;;9.77;3.15;;;8.70;99.90;;;;;;7394441;19;20031;-73
2022/05/29 03:39:40;;;;;;;9.68;2.92;;;8.60;99.90;;;;;;7386865;19;20039;-73
2022/05/29 03:42:09;;;;;;;13.52;3.28;;;9.00;99.90;;;;;;7390299;19;20015;-74
2022/05/29 03:44:38;;;;;;;10.02;3.05;;;8.80;99.90;;;;;;7392841;19;20019;-73
2022/05/29 03:47:07;;;;;;;10.98;3.22;;;9.30;99.90;;;;;;7391694;19;20078;-73
2022/05/29 03:49:36;;;;;;;9.57;2.70;;;8.90;99.90;;;;;;7393745;19;20026;-74
2022/05/29 03:52:08;;;;;;;7.05;2.97;;;9.00;99.90;;;;;;7400418;19;20025;-73
2022/05/29 03:54:37;;;;;;;13.57;3.40;;;9.00;99.90;;;;;;7401490;19;20038;-74
2022/05/29 03:57:07;;;;;;;11.15;2.65;;;9.10;99.90;;;;;;7397452;19;20003;-74
2022/05/29 03:59:36;;;;;;;11.40;2.85;;;9.00;99.90;;;;;;7396639;19;20384;-74
2022/05/29 04:02:05;;;;;;;10.25;2.80;;;9.00;99.90;;;;;;7398409;19;20025;-73
2022/05/29 04:04:34;;;;;;;12.68;3.28;;;;;;;;;;7401055;19;20011;-74
2022/05/29 04:07:04;;;;;;;12.82;3.03;;;9.40;99.90;;;;;;7395502;19;20031;-74
2022/05/29 04:12:18;;;;;;;10.70;2.95;;;9.00;99.90;;;;;;7401706;19;20081;-74
2022/05/29 04:14:47;;;;;;;9.40;2.55;;;9.00;99.90;;;;;;7396204;19;20030;-73
2022/05/29 04:17:18;;;;;;;13.63;2.53;;;8.90;99.90;;;;;;7398506;19;20037;-74
2022/05/29 04:19:48;;;;;;;8.55;2.70;;;8.90;99.90;;;;;;7395101;19;20011;-74
2022/05/29 04:22:20;;;;;;;11.57;2.95;;;8.80;99.90;;;;;;7398812;19;20018;-74
2022/05/29 04:24:51;;;;;;;11.25;2.95;;;8.90;99.90;;;;;;7400742;19;20052;-74
2022/05/29 04:27:21;;;;;;;14.55;3.08;;;;;;;;;;7398083;19;20028;-74
2022/05/29 04:29:50;;;;;;;9.07;2.65;;;9.20;99.90;;;;;;7397832;19;20100;-74
2022/05/29 04:35:00;;;;;;;9.45;2.60;;;8.80;99.90;;;;;;7396470;19;20030;-75
2022/05/29 04:37:31;;;;;;;12.10;2.67;;;8.50;99.90;;;;;;7397698;19;20379;-74
2022/05/29 04:40:03;;;;;;;13.50;3.65;;;8.90;99.90;;;;;;7391806;19;20015;-75
2022/05/29 04:42:31;;;;;;;9.77;2.80;;;8.90;99.90;;;;;;7397265;19;20018;-74
2022/05/29 04:45:01;;;;;;;11.15;2.95;;;8.90;99.90;;;;;;7396936;19;20019;-75
2022/05/29 04:47:29;;;;;;;12.65;2.80;;;9.30;99.90;;;;;;7397188;19;20050;-75
2022/05/29 04:49:58;;;;;;;16.75;3.45;;;8.90;99.90;;;;;;7395222;19;20078;-74
2022/05/29 04:52:29;;;;;;;10.23;2.90;;;8.90;99.90;;;;;;7399937;19;20010;-74
2022/05/29 04:54:58;;;;;;;13.48;2.88;;;9.40;99.90;;;;;;7394392;19;20019;-75
2022/05/29 04:57:29;;;;;;;12.55;2.88;;;9.30;99.90;;;;;;7399149;19;20078;-74
2022/05/29 04:59:59;;;;;;;9.48;2.40;;;9.00;99.90;;;;;;7393859;19;20010;-74
2022/05/29 05:02:28;;;;;;;9.80;2.72;;;8.90;99.90;;;;;;7395905;19;20018;-75
2022/05/29 05:04:57;;;;;;;12.68;3.40;;;;;;;;;;7397156;19;20022;-74
2022/05/29 05:07:27;;;;;;;17.67;3.00;;;;;;;;;;7394220;19;20035;-74
2022/05/29 05:09:56;;;;;;;8.38;2.58;;;;;;;;;;7394326;19;20038;-75
2022/05/29 05:12:25;;;;;;;13.93;3.05;;;8.80;99.90;;;;;;7396331;19;20022;-74
2022/05/29 05:14:57;;;;;;;12.65;3.08;;;9.00;99.90;;;;;;7400121;19;20538;-75
2022/05/29 05:17:25;;;;;;;10.73;2.45;;;9.00;99.90;;;;;;7397659;19;20486;-75
2022/05/29 05:19:54;;;;;;;10.82;2.70;;;9.10;99.90;;;;;;7394025;19;20031;-75
2022/05/29 05:22:23;;;;;;;9.40;2.53;;;;;;;;;;7398320;19;20021;-75
2022/05/29 05:24:52;;;;;;;12.48;2.65;;;8.70;99.90;;;;;;7398008;19;20010;-74
2022/05/29 05:27:21;;;;;;;11.50;2.80;;;9.00;99.90;;;;;;7395213;19;20022;-73
2022/05/29 05:29:51;;;;;;;11.35;3.00;;;;;;;;;;7395917;19;20022;-74
2022/05/29 05:32:22;;;;;;;10.30;2.50;;;9.10;99.90;;;;;;7396553;19;20483;-75
2022/05/29 05:34:51;;;;;;;14.88;3.10;;;9.00;99.90;;;;;;7396493;19;20017;-75
2022/05/29 05:37:20;;;;;;;12.68;3.08;;;;;;;;;;7396914;19;20074;-75
2022/05/29 05:39:49;;;;;;;10.65;2.95;;;9.40;99.90;;;;;;7394442;19;20015;-74
2022/05/29 05:42:18;;;;;;;19.88;3.35;;;9.20;99.90;;;;;;7392939;19;20007;-75
2022/05/29 05:44:48;;;;;;;15.77;3.42;;;9.00;99.90;;;;;;7395192;19;20030;-74
2022/05/29 05:47:17;;;;;;;8.10;2.28;;;;;;;;;;7394641;19;20055;-74
2022/05/29 05:49:48;;;;;;;12.13;2.58;;;9.30;99.90;;;;;;7391604;19;20018;-73
2022/05/29 05:52:18;;;;;;;16.55;2.60;;;9.30;99.90;;;;;;7395304;19;20481;-75
2022/05/29 05:54:47;;;;;;;18.95;3.45;;;9.30;99.90;;;;;;7397652;19;20011;-74
2022/05/29 05:57:20;;;;;;;12.15;3.35;;;9.00;99.90;;;;;;7393537;19;20035;-74
2022/05/29 05:59:49;;;;;;;11.80;2.92;;;9.30;99.90;;;;;;7394362;19;20022;-74
2022/05/29 06:02:18;;;;;;;9.93;2.70;;;9.30;99.90;;;;;;7394528;19;20014;-75
2022/05/29 06:04:49;;;;;;;12.73;2.53;;;9.60;99.90;;;;;;7396066;19;20352;-74
2022/05/29 06:07:18;;;;;;;13.43;3.05;;;9.30;99.90;;;;;;7393036;19;20015;-74
2022/05/29 06:09:48;;;;;;;13.55;2.97;;;;;;;;;;7388226;19;20065;-74
2022/05/29 06:12:19;;;;;;;12.60;2.60;;;9.40;99.90;;;;;;7397772;19;20047;-75
2022/05/29 06:14:48;;;;;;;10.15;2.53;;;9.20;99.90;;;;;;7395328;19;20038;-74
2022/05/29 06:17:18;;;;;;;19.25;2.92;;;;;;;;;;7395803;19;20074;-74
2022/05/29 06:19:49;;;;;;;8.52;2.05;;;9.30;99.90;;;;;;7395982;19;20026;-74
2022/05/29 06:22:18;;;;;;;9.25;2.30;;;9.30;99.90;;;;;;7394286;19;20019;-74
2022/05/29 06:24:47;;;;;;;11.20;2.88;;;9.40;99.90;;;;;;7394284;19;20017;-75
2022/05/29 06:27:16;;;;;;;8.10;2.00;;;9.40;99.90;;;;;;7393421;19;20026;-74
2022/05/29 06:29:45;;;;;;;8.95;2.13;;;9.30;99.90;;;;;;7396383;19;20014;-75
2022/05/29 06:32:15;;;;;;;15.15;2.20;;;9.40;99.90;;;;;;7395274;19;20025;-75
2022/05/29 06:34:44;;;;;;;10.50;1.95;;;9.80;99.90;;;;;;7391812;19;20018;-75
2022/05/29 06:37:15;;;;;;;8.68;2.10;;;9.40;99.90;;;;;;7394144;19;20013;-73
2022/05/29 06:39:45;;;;;;;12.25;2.40;;;9.30;99.90;;;;;;7393802;19;20014;-74
2022/05/29 06:42:15;;;;;;;5.93;1.90;;;9.40;99.90;;;;;;7393744;19;20011;-75
2022/05/29 06:44:44;;;;;;;8.95;1.85;;;9.30;99.90;;;;;;7393118;19;20036;-73
2022/05/29 06:47:15;;;;;;;12.20;2.42;;;;;;;;;;7395055;19;20018;-74
2022/05/29 06:49:44;;;;;;;8.32;1.90;;;9.30;99.90;;;;;;7392804;19;20006;-73
2022/05/29 06:52:15;;;;;;;9.90;2.17;;;9.30;99.90;;;;;;7393050;19;20543;-73
2022/05/29 06:54:44;;;;;;;7.72;1.80;;;9.40;99.90;;;;;;7393904;19;20482;-73
2022/05/29 06:57:36;;;;;;;7.32;2.00;;;9.20;99.90;;;;;;7395016;19;20025;-73
2022/05/29 07:08:11;;;;;;;15.00;2.85;;;8.90;99.90;;;;;;7392724;19;20019;-73
2022/05/29 07:10:42;;;;;;;11.65;2.50;;;9.00;99.90;;;;;;7390565;19;20429;-73
2022/05/29 07:13:11;;;;;;;8.45;1.95;;;9.40;99.90;;;;;;7395091;19;20090;-74
2022/05/29 07:15:40;;;;;;;16.10;2.40;;;9.20;99.90;;;;;;7392059;19;20033;-73
2022/05/29 07:18:10;;;;;;;12.63;2.10;;;9.10;99.90;;;;;;7393867;19;20023;-73
2022/05/29 07:20:38;;;;;;;15.77;2.55;;;9.00;99.90;;;;;;7393850;19;20014;-73
2022/05/29 07:23:10;;;;;;;11.73;2.05;;;9.40;99.90;;;;;;7392914;19;20569;-73
2022/05/29 07:25:39;;;;;;;16.02;2.65;;;9.20;99.90;;;;;;7402291;19;20021;-73
2022/05/29 07:28:08;;;;;;;13.00;2.50;;;9.10;99.90;;;;;;7399901;19;20550;-73
2022/05/29 07:30:38;;;;;;;15.10;2.67;;;;;;;;;;7393547;19;20356;-72
2022/05/29 07:33:06;;;;;;;13.45;2.00;;;9.60;99.90;;;;;;7396588;19;20475;-73
2022/05/29 07:35:36;;;;;;;10.25;2.67;;;;;;;;;;7394505;19;20018;-77
2022/05/29 07:38:05;;;;;;;8.27;2.13;;;9.20;99.90;;;;;;7397553;19;20022;-74
2022/05/29 07:40:36;;;;;;;8.15;2.08;;;9.10;99.90;;;;;;7397481;19;20078;-73
2022/05/29 07:45:50;;;;;;;8.90;2.20;;;9.20;99.90;;;;;;7390834;19;20086;-74
2022/05/29 07:48:20;;;;;;;11.82;2.20;;;9.30;99.90;;;;;;7400305;19;20021;-73
2022/05/29 07:50:49;;;;;;;11.63;2.67;;;9.10;99.90;;;;;;7399742;19;20353;-74
2022/05/29 07:53:19;;;;;;;8.25;1.92;;;9.20;99.90;;;;;;7401800;19;20006;-74
2022/05/29 07:55:51;;;;;;;7.57;2.13;;;9.10;99.90;;;;;;7398833;19;20018;-74
2022/05/29 07:58:19;;;;;;;9.57;2.53;;;8.70;99.90;;;;;;7396741;19;20081;-74
2022/05/29 08:00:49;;;;;;;9.35;2.42;;;;;;;;;;7394447;19;20089;-74
2022/05/29 08:03:19;;;;;;;13.57;2.17;;;9.10;99.90;;;;;;7398742;19;20483;-74
2022/05/29 08:05:48;;;;;;;7.10;1.80;;;8.90;99.90;;;;;;7395865;19;20402;-74
2022/05/29 08:08:17;;;;;;;8.43;2.00;;;9.00;99.90;;;;;;7398727;19;20024;-74
2022/05/29 08:10:50;;;;;;;11.30;2.22;;;9.10;99.90;;;;;;7398941;19;20010;-74
2022/05/29 08:13:19;;;;;;;5.97;2.13;;;9.20;99.90;;;;;;7393850;19;21447;-74
2022/05/29 08:15:48;;;;;;;9.82;2.10;;;9.40;99.90;;;;;;7400748;19;20038;-73
2022/05/29 08:18:17;;;;;;;10.20;2.20;;;;;;;;;;7392377;19;20017;-72
2022/05/29 08:20:46;;;;;;;13.65;2.30;;;9.60;99.90;;;;;;7395766;19;20011;-72
2022/05/29 08:23:18;;;;;;;10.20;2.30;;;;;;;;;;7397434;19;20030;-72
2022/05/29 08:31:12;;;;;;;7.60;1.70;;;;;;;;;;7393139;19;20030;-73
2022/05/29 08:33:43;;;;;;;7.72;2.17;;;9.80;99.90;;;;;;7398377;19;20502;-72
2022/05/29 08:36:15;;;;;;;8.05;2.15;;;9.60;99.90;;;;;;7397602;19;20018;-73
2022/05/29 08:38:46;;;;;;;9.05;2.08;;;9.70;99.90;;;;;;7394797;19;20022;-73
2022/05/29 08:41:27;;;;;;;7.97;2.08;;;9.70;99.90;;;;;;7398123;19;20015;-73
2022/05/29 08:44:05;;;;;;;5.68;2.50;;;9.70;99.90;;;;;;7391839;19;20262;-75
2022/05/29 08:46:39;;;;;;;9.73;2.20;;;9.60;99.90;;;;;;7386245;19;20014;-73
2022/05/29 08:49:10;;;;;;;6.65;2.05;;;9.80;99.90;;;;;;7382266;19;20010;-72
2022/05/29 08:52:02;;;;;;;7.80;2.00;;;9.80;99.90;;;;;;7347156;19;20021;-73
2022/05/29 08:54:49;;;;;;;5.28;1.60;;;9.90;99.90;;;;;;6557871;19;15037084;-73
2022/05/29 08:57:54;;;;;;;7.05;1.88;;;9.80;99.90;;;;;;7293123;19;20086;-73
2022/05/29 09:00:35;;;;;;;6.28;2.10;;;9.50;99.90;;;;;;6696821;19;3009861;-72
2022/05/29 09:03:21;;;;;;;8.25;1.90;;;10.10;99.90;;;;;;7398124;19;20487;-72
2022/05/29 09:05:55;;;;;;;8.68;1.50;;;9.80;99.90;;;;;;7393005;19;20018;-73
2022/05/29 09:08:29;;;;;;;13.57;1.65;;;9.80;99.90;;;;;;7392428;19;20048;-72
2022/05/29 09:11:04;;;;;;;4.40;2.00;;;10.10;99.90;;;;;;7397627;19;20028;-72
2022/05/29 09:13:38;;;;;;;8.32;1.80;;;10.00;99.90;;;;;;7393637;19;20021;-73
2022/05/29 09:16:15;;;;;;;6.32;1.65;;;10.10;99.90;;;;;;7393582;19;20018;-73
2022/05/29 09:18:49;;;;;;;7.28;1.73;;;10.00;99.90;;;;;;7397003;19;20487;-73
2022/05/29 09:21:20;;;;;;;9.77;1.60;;;10.10;99.90;;;;;;7395979;19;20074;-74
2022/05/29 09:24:04;;;;;;;8.88;1.80;;;10.20;99.90;;;;;;7395547;19;20030;-72
2022/05/29 09:26:38;;;;;;;8.07;1.88;;;10.20;99.90;;;;;;7394166;19;20504;-72
2022/05/29 09:29:08;;;;;;;5.10;1.67;;;10.20;99.90;;;;;;7395343;19;20011;-72
2022/05/29 09:31:41;;;;;;;7.05;1.58;;;10.20;99.90;;;;;;7391541;19;20014;-72
2022/05/29 09:34:11;;;;;;;8.88;1.50;;;10.20;99.90;;;;;;7395589;19;20031;-72
2022/05/29 09:36:53;;;;;;;4.38;1.50;;;9.90;99.90;;;;;;7393670;19;20069;-73
2022/05/29 09:39:29;;;;;;;7.20;1.75;;;10.00;99.90;;;;;;7395142;19;20081;-72
2022/05/29 09:42:05;;;;;;;7.45;1.70;;;10.10;99.90;;;;;;7390366;19;20393;-72
2022/05/29 09:44:34;;;;;;;7.00;1.40;;;10.10;99.90;;;;;;7387808;19;20411;-72
2022/05/29 09:50:06;;;;;;;6.82;1.42;;;10.40;99.90;;;;;;7390607;19;20438;-72
2022/05/29 09:52:40;;;;;;;4.97;1.20;;;10.40;99.90;;;;;;7394220;19;20018;-73
2022/05/29 09:55:23;;;;;;;5.60;1.38;;;10.40;99.90;;;;;;7395956;19;20019;-72
2022/05/29 09:57:55;;;;;;;8.88;2.08;;;10.70;99.90;;;;;;7397760;19;20019;-72
2022/05/29 10:00:30;;;;;;;10.40;2.00;;;10.70;99.90;;;;;;7393054;19;20010;-72
2022/05/29 10:03:04;;;;;;;7.78;1.55;;;10.80;99.90;;;;;;7389632;19;20010;-72
2022/05/29 10:05:36;;;;;;;6.43;1.52;;;11.00;99.90;;;;;;7392265;19;20066;-72
2022/05/29 10:08:20;;;;;;;10.93;1.80;;;10.90;99.90;;;;;;7393186;19;20022;-72
2022/05/29 10:10:49;;;;;;;7.38;2.00;;;10.90;99.90;;;;;;7390570;19;20014;-72
2022/05/29 10:13:38;;;;;;;9.50;2.22;;;12.70;99.90;;;;;;7387700;19;20077;-73
2022/05/29 10:16:08;;;;;;;8.10;1.90;;;10.50;99.90;;;;;;7391036;19;20499;-73
2022/05/29 10:18:41;;;;;;;10.63;2.05;;;10.70;99.90;;;;;;7393320;19;20366;-73
2022/05/29 10:21:17;;;;;;;7.50;1.90;;;11.00;99.90;;;;;;7390932;19;20014;-72
2022/05/29 10:23:52;;;;;;;5.97;1.77;;;10.90;99.90;;;;;;7393787;19;20011;-73
2022/05/29 10:26:33;;;;;;;9.50;1.70;;;10.50;99.90;;;;;;7396552;19;20018;-73
2022/05/29 10:29:05;;;;;;;6.28;1.90;;;10.30;99.90;;;;;;7394733;19;20015;-73
2022/05/29 10:31:39;;;;;;;7.93;1.40;;;10.40;99.90;;;;;;7385839;19;20046;-72
2022/05/29 10:34:13;;;;;;;5.47;1.50;;;10.30;99.90;;;;;;7391177;19;20015;-72
2022/05/29 10:36:43;;;;;;;4.85;1.27;;;10.50;99.90;;;;;;7390844;19;20086;-72
2022/05/29 10:39:15;;;;;;;4.60;1.50;;;10.60;99.90;;;;;;7384798;19;20083;-72
2022/05/29 10:41:46;;;;;;;4.35;1.60;;;10.90;99.90;;;;;;7387797;19;20660;-72
2022/05/29 10:44:35;;;;;;;5.30;1.67;;;10.90;99.90;;;;;;7085921;19;5009858;-73
2022/05/29 10:47:09;;;;;;;4.15;1.45;;;11.10;99.90;;;;;;7390749;19;20022;-72
2022/05/29 10:49:45;;;;;;;5.82;1.65;;;11.00;99.90;;;;;;7393029;19;20022;-73
2022/05/29 10:52:30;;;;;;;6.15;1.70;;;11.00;99.90;;;;;;7391597;19;20022;-72
2022/05/29 10:55:24;;;;;;;6.90;1.92;;;10.80;99.90;;;;;;7396046;19;20015;-72
2022/05/29 10:58:11;;;;;;;6.43;1.70;;;10.90;99.90;;;;;;7389909;19;20337;-72
2022/05/29 11:00:50;;;;;;;8.90;1.80;;;10.80;99.90;;;;;;7398387;19;20019;-72
2022/05/29 11:03:41;;;;;;;5.00;1.90;;;10.80;99.90;;;;;;7398000;19;20025;-72
2022/05/29 11:06:49;;;;;;;12.63;3.08;;;10.70;99.90;;;;;;7399900;19;20022;-71
2022/05/29 11:09:45;;;;;;;9.82;1.92;;;10.60;99.90;;;;;;7397048;19;20467;-72
2022/05/29 11:12:31;;;;;;;9.73;2.10;;;10.80;99.90;;;;;;7399508;19;20078;-72
2022/05/29 11:15:15;;;;;;;6.53;1.80;;;11.00;99.90;;;;;;7399817;19;20082;-72
2022/05/29 11:17:54;;;;;;;7.43;1.92;;;11.10;99.90;;;;;;7400669;19;20014;-72
2022/05/29 11:20:49;;;;;;;10.82;1.70;;;11.30;99.90;;;;;;7397780;19;20030;-71
2022/05/29 11:23:36;;;;;;;7.85;2.10;;;11.30;99.90;;;;;;7397639;19;20081;-72
2022/05/29 11:26:12;;;;;;;10.27;1.98;;;11.40;99.90;;;;;;7398795;19;20015;-72
2022/05/29 11:29:07;;;;;;;4.45;1.60;;;11.60;99.90;;;;;;7397654;19;20027;-72
2022/05/29 11:31:54;;;;;;;11.20;1.58;;;11.80;99.90;;;;;;7392709;19;20037;-72
2022/05/29 11:34:32;;;;;;;7.05;1.48;;;11.90;99.90;;;;;;7400802;19;20038;-72
2022/05/29 11:37:22;;;;;;;8.10;1.58;;;11.80;99.90;;;;;;7393812;19;20006;-72
2022/05/29 11:39:59;;;;;;;7.82;1.70;;;11.80;99.90;;;;;;7403212;19;20015;-72
2022/05/29 11:42:33;;;;;;;6.78;1.42;;;11.70;99.90;;;;;;7397338;19;20006;-72
2022/05/29 11:45:07;;;;;;;6.15;1.50;;;11.60;99.90;;;;;;7399402;19;20491;-72
2022/05/29 11:53:18;;;;;;;8.43;1.60;;;11.70;99.90;;;;;;7402171;19;20014;-72
2022/05/29 11:55:52;;;;;;;10.05;1.77;;;11.60;99.90;;;;;;7398560;19;20010;-72
2022/05/29 11:58:25;;;;;;;7.57;1.88;;;11.60;99.90;;;;;;7398821;19;20039;-74
2022/05/29 12:00:59;;;;;;;7.25;2.42;;;11.50;99.90;;;;;;7398542;19;20484;-72
2022/05/29 12:03:46;;;;;;;7.45;1.58;;;11.50;99.90;;;;;;7395688;19;20018;-71
2022/05/29 12:06:18;;;;;;;11.25;1.90;;;11.60;99.90;;;;;;7396364;19;20027;-72
2022/05/29 12:08:59;;;;;;;7.22;1.85;;;11.70;99.90;;;;;;7398882;19;20051;-74
2022/05/29 12:11:38;;;;;;;11.15;2.25;;;11.80;99.90;;;;;;7398252;19;20017;-72
2022/05/29 12:14:13;;;;;;;7.25;2.30;;;11.70;99.90;;;;;;7397680;19;20415;-73
2022/05/29 12:16:46;;;;;;;9.68;1.98;;;11.90;99.90;;;;;;7393187;19;20007;-70
2022/05/29 12:19:20;;;;;;;8.32;1.50;;;11.90;99.90;;;;;;7396231;19;20021;-72
2022/05/29 12:21:52;;;;;;;6.40;1.80;;;11.80;99.90;;;;;;7396771;19;20070;-73
2022/05/29 12:24:24;;;;;;;8.98;2.15;;;11.80;99.90;;;;;;7399361;19;20499;-73
2022/05/29 12:27:02;;;;;;;10.77;3.25;;;11.70;99.90;;;;;;7398961;19;20018;-73
2022/05/29 12:29:34;;;;;;;11.60;3.05;;;11.70;99.90;;;;;;7400232;19;20014;-73
2022/05/29 12:32:07;;;;;;;14.77;2.47;;;11.80;99.90;;;;;;7395764;19;20010;-72
2022/05/29 12:34:43;;;;;;;9.40;2.25;;;11.90;99.90;;;;;;7401793;19;20018;-73
2022/05/29 12:37:37;;;;;;;7.20;1.92;;;11.90;99.90;;;;;;7392483;19;20376;-72
2022/05/29 12:40:37;;;;;;;6.70;2.17;;;11.80;99.90;;;;;;7396328;19;20020;-78
2022/05/29 12:43:42;;;;;;;9.35;1.98;;;11.80;99.90;;;;;;7394100;19;20018;-71
2022/05/29 12:46:25;;;;;;;5.90;1.60;;;11.80;99.90;;;;;;7394476;19;20083;-71
2022/05/29 12:49:16;;;;;;;7.70;1.77;;;12.10;99.90;;;;;;7392895;19;20014;-72
2022/05/29 12:52:02;;;;;;;11.30;1.75;;;12.20;99.90;;;;;;7394630;19;20014;-71
2022/05/29 12:54:48;;;;;;;12.25;2.22;;;12.40;99.90;;;;;;7398065;19;20042;-72
2022/05/29 12:57:35;;;;;;;7.32;2.05;;;12.10;99.90;;;;;;7389081;19;20112;-72
2022/05/29 13:00:36;;;;;;;7.88;2.47;;;12.20;99.90;;;;;;7397444;19;20352;-71
2022/05/29 13:03:35;;;;;;;6.45;1.40;;;12.30;99.90;;;;;;7397468;19;20018;-72
2022/05/29 13:06:37;;;;;;;5.38;1.70;;;11.90;99.90;;;;;;7395508;19;20035;-72
2022/05/29 13:09:26;;;;;;;9.13;1.90;;;11.90;99.90;;;;;;7399573;19;20026;-71
2022/05/29 13:11:59;;;;;;;7.15;2.05;;;11.80;99.90;;;;;;7397599;19;20014;-72
2022/05/29 13:14:28;;;;;;;9.32;2.15;;;11.70;99.90;;;;;;7396568;19;20014;-71
2022/05/29 13:17:13;;;;;;;8.02;1.85;;;11.50;99.90;;;;;;7397712;19;20369;-72
2022/05/29 13:20:01;;;;;;;13.25;2.15;;;11.40;99.90;;;;;;7399171;19;20021;-72
2022/05/29 13:22:49;;;;;;;10.55;2.63;;;11.40;99.90;;;;;;7394729;19;20023;-71
2022/05/29 13:25:19;;;;;;;12.23;2.33;;;11.60;99.90;;;;;;7392143;19;20388;-72
2022/05/29 13:27:49;;;;;;;10.60;2.20;;;11.40;99.90;;;;;;7398037;19;20499;-72
2022/05/29 13:31:00;;;;;;;8.32;1.98;;;11.00;99.90;;;;;;7397725;19;20007;-72
2022/05/29 13:33:48;;;;;;;7.43;2.08;;;11.20;99.90;;;;;;7395038;19;20484;-73
2022/05/29 13:36:49;;;;;;;8.45;1.77;;;11.30;99.90;;;;;;7397151;19;20031;-72
2022/05/29 13:39:35;;;;;;;10.05;1.92;;;11.30;99.90;;;;;;7396620;19;20019;-72
2022/05/29 13:42:10;;;;;;;10.73;2.45;;;11.50;99.90;;;;;;7376528;19;20029;-72
2022/05/29 13:44:40;;;;;;;9.52;2.08;;;11.40;99.90;;;;;;7397131;19;20014;-72
2022/05/29 13:47:37;;;;;;;10.52;2.42;;;11.60;99.90;;;;;;7392830;19;20042;-72
2022/05/29 13:50:34;;;;;;;11.32;2.85;;;11.60;99.90;;;;;;7392526;19;20015;-72
2022/05/29 13:53:06;;;;;;;8.30;2.47;;;11.50;99.90;;;;;;7392085;19;20053;-72
2022/05/29 13:55:55;;;;;;;7.10;2.50;;;11.80;99.90;;;;;;7395608;19;20019;-72
2022/05/29 14:04:03;;;;;;;9.77;1.95;;;12.10;99.90;;;;;;7388546;19;20018;-73
2022/05/29 14:06:39;;;;;;;6.70;1.98;;;12.30;99.90;;;;;;7397795;19;20011;-75
2022/05/29 14:09:30;;;;;;;6.90;1.75;;;11.90;99.90;;;;;;7392084;19;20018;-73
2022/05/29 14:12:01;;;;;;;6.70;1.73;;;11.90;99.90;;;;;;7391270;19;20014;-73